sensor_id;sensor_type;location;lat;lon;timestamp;P1;durP1;ratioP1;P2;durP2;ratioP2
23716;SDS011;22094;52.130;5.598;2022-08-19T00:01:09;29.60;;;23.80;;
23716;SDS011;22094;52.130;5.598;2022-08-19T00:03:35;26.45;;;23.20;;
23716;SDS011;22094;52.130;5.598;2022-08-19T00:06:00;28.33;;;23.63;;
23716;SDS011;22094;52.130;5.598;2022-08-19T00:08:26;26.98;;;22.02;;
23716;SDS011;22094;52.130;5.598;2022-08-19T00:10:52;30.80;;;23.65;;
23716;SDS011;22094;52.130;5.598;2022-08-19T00:13:17;33.50;;;24.75;;
23716;SDS011;22094;52.130;5.598;2022-08-19T00:15:43;27.90;;;23.58;;
23716;SDS011;22094;52.130;5.598;2022-08-19T00:18:09;36.13;;;26.35;;
23716;SDS011;22094;52.130;5.598;2022-08-19T00:20:35;30.88;;;24.08;;
23716;SDS011;22094;52.130;5.598;2022-08-19T00:23:02;32.15;;;25.15;;
23716;SDS011;22094;52.130;5.598;2022-08-19T00:25:28;33.70;;;24.60;;
23716;SDS011;22094;52.130;5.598;2022-08-19T00:27:54;29.77;;;23.73;;
23716;SDS011;22094;52.130;5.598;2022-08-19T00:30:19;31.95;;;24.17;;
23716;SDS011;22094;52.130;5.598;2022-08-19T00:32:45;30.23;;;24.70;;
23716;SDS011;22094;52.130;5.598;2022-08-19T00:35:10;34.67;;;25.30;;
23716;SDS011;22094;52.130;5.598;2022-08-19T00:37:36;35.72;;;25.27;;
23716;SDS011;22094;52.130;5.598;2022-08-19T00:40:04;30.10;;;23.42;;
23716;SDS011;22094;52.130;5.598;2022-08-19T00:42:30;34.78;;;23.60;;
23716;SDS011;22094;52.130;5.598;2022-08-19T00:44:56;35.28;;;24.73;;
23716;SDS011;22094;52.130;5.598;2022-08-19T00:47:22;33.63;;;25.35;;
23716;SDS011;22094;52.130;5.598;2022-08-19T00:49:48;35.58;;;24.48;;
23716;SDS011;22094;52.130;5.598;2022-08-19T00:52:21;36.20;;;25.77;;
23716;SDS011;22094;52.130;5.598;2022-08-19T00:54:49;31.92;;;23.63;;
23716;SDS011;22094;52.130;5.598;2022-08-19T00:57:18;34.85;;;24.02;;
23716;SDS011;22094;52.130;5.598;2022-08-19T00:59:48;33.55;;;23.58;;
23716;SDS011;22094;52.130;5.598;2022-08-19T01:02:17;35.00;;;24.05;;
23716;SDS011;22094;52.130;5.598;2022-08-19T01:04:43;38.45;;;25.65;;
23716;SDS011;22094;52.130;5.598;2022-08-19T01:07:08;39.65;;;27.27;;
23716;SDS011;22094;52.130;5.598;2022-08-19T01:09:34;33.67;;;25.02;;
23716;SDS011;22094;52.130;5.598;2022-08-19T01:12:00;38.72;;;25.73;;
23716;SDS011;22094;52.130;5.598;2022-08-19T01:14:26;39.42;;;27.08;;
23716;SDS011;22094;52.130;5.598;2022-08-19T01:16:53;39.70;;;26.05;;
23716;SDS011;22094;52.130;5.598;2022-08-19T01:19:24;39.25;;;26.63;;
23716;SDS011;22094;52.130;5.598;2022-08-19T01:22:01;34.97;;;25.60;;
23716;SDS011;22094;52.130;5.598;2022-08-19T01:24:30;35.38;;;25.08;;
23716;SDS011;22094;52.130;5.598;2022-08-19T01:26:56;34.42;;;23.80;;
23716;SDS011;22094;52.130;5.598;2022-08-19T01:29:23;35.30;;;24.80;;
23716;SDS011;22094;52.130;5.598;2022-08-19T01:31:48;38.72;;;24.85;;
23716;SDS011;22094;52.130;5.598;2022-08-19T01:34:17;30.05;;;22.70;;
23716;SDS011;22094;52.130;5.598;2022-08-19T01:36:44;34.50;;;25.05;;
23716;SDS011;22094;52.130;5.598;2022-08-19T01:39:13;36.80;;;24.60;;
23716;SDS011;22094;52.130;5.598;2022-08-19T01:41:41;36.70;;;25.85;;
23716;SDS011;22094;52.130;5.598;2022-08-19T01:44:07;39.25;;;26.85;;
23716;SDS011;22094;52.130;5.598;2022-08-19T01:46:34;38.45;;;26.23;;
23716;SDS011;22094;52.130;5.598;2022-08-19T01:49:00;36.97;;;25.08;;
23716;SDS011;22094;52.130;5.598;2022-08-19T01:51:27;39.10;;;24.42;;
23716;SDS011;22094;52.130;5.598;2022-08-19T01:53:53;33.85;;;24.02;;
23716;SDS011;22094;52.130;5.598;2022-08-19T01:56:19;38.75;;;25.52;;
23716;SDS011;22094;52.130;5.598;2022-08-19T01:58:47;34.35;;;24.17;;
23716;SDS011;22094;52.130;5.598;2022-08-19T02:01:18;38.30;;;24.13;;
23716;SDS011;22094;52.130;5.598;2022-08-19T02:03:44;34.58;;;24.15;;
23716;SDS011;22094;52.130;5.598;2022-08-19T02:06:10;25.85;;;18.73;;
23716;SDS011;22094;52.130;5.598;2022-08-19T02:08:37;39.70;;;26.25;;
23716;SDS011;22094;52.130;5.598;2022-08-19T02:11:04;44.78;;;28.38;;
23716;SDS011;22094;52.130;5.598;2022-08-19T02:13:30;41.58;;;26.40;;
23716;SDS011;22094;52.130;5.598;2022-08-19T02:15:56;40.53;;;25.58;;
23716;SDS011;22094;52.130;5.598;2022-08-19T02:18:22;35.17;;;24.38;;
23716;SDS011;22094;52.130;5.598;2022-08-19T02:20:48;37.38;;;23.70;;
23716;SDS011;22094;52.130;5.598;2022-08-19T02:23:15;40.95;;;23.73;;
23716;SDS011;22094;52.130;5.598;2022-08-19T02:25:42;44.40;;;26.23;;
23716;SDS011;22094;52.130;5.598;2022-08-19T02:28:12;38.78;;;24.85;;
23716;SDS011;22094;52.130;5.598;2022-08-19T02:30:38;44.33;;;27.92;;
23716;SDS011;22094;52.130;5.598;2022-08-19T02:33:06;37.80;;;25.85;;
23716;SDS011;22094;52.130;5.598;2022-08-19T02:35:31;45.47;;;27.83;;
23716;SDS011;22094;52.130;5.598;2022-08-19T02:37:57;36.15;;;24.98;;
23716;SDS011;22094;52.130;5.598;2022-08-19T02:40:47;33.97;;;23.90;;
23716;SDS011;22094;52.130;5.598;2022-08-19T02:43:16;31.20;;;21.98;;
23716;SDS011;22094;52.130;5.598;2022-08-19T02:45:42;30.40;;;21.63;;
23716;SDS011;22094;52.130;5.598;2022-08-19T02:48:07;31.35;;;22.40;;
23716;SDS011;22094;52.130;5.598;2022-08-19T02:50:37;31.15;;;21.85;;
23716;SDS011;22094;52.130;5.598;2022-08-19T02:53:03;30.20;;;20.85;;
23716;SDS011;22094;52.130;5.598;2022-08-19T02:55:29;27.80;;;19.83;;
23716;SDS011;22094;52.130;5.598;2022-08-19T02:57:55;28.92;;;20.00;;
23716;SDS011;22094;52.130;5.598;2022-08-19T03:00:21;26.05;;;18.88;;
23716;SDS011;22094;52.130;5.598;2022-08-19T03:02:48;28.05;;;19.83;;
23716;SDS011;22094;52.130;5.598;2022-08-19T03:05:14;26.85;;;19.38;;
23716;SDS011;22094;52.130;5.598;2022-08-19T03:07:40;27.67;;;19.25;;
23716;SDS011;22094;52.130;5.598;2022-08-19T03:10:06;36.67;;;22.92;;
23716;SDS011;22094;52.130;5.598;2022-08-19T03:12:35;35.85;;;23.83;;
23716;SDS011;22094;52.130;5.598;2022-08-19T03:15:02;30.23;;;20.75;;
23716;SDS011;22094;52.130;5.598;2022-08-19T03:17:32;31.85;;;20.77;;
23716;SDS011;22094;52.130;5.598;2022-08-19T03:19:59;32.17;;;21.38;;
23716;SDS011;22094;52.130;5.598;2022-08-19T03:22:25;25.70;;;18.13;;
23716;SDS011;22094;52.130;5.598;2022-08-19T03:24:51;27.20;;;18.48;;
23716;SDS011;22094;52.130;5.598;2022-08-19T03:27:16;33.22;;;22.25;;
23716;SDS011;22094;52.130;5.598;2022-08-19T03:29:42;33.10;;;20.77;;
23716;SDS011;22094;52.130;5.598;2022-08-19T03:32:08;59.22;;;29.98;;
23716;SDS011;22094;52.130;5.598;2022-08-19T03:34:35;40.60;;;26.23;;
23716;SDS011;22094;52.130;5.598;2022-08-19T03:37:04;52.22;;;29.88;;
23716;SDS011;22094;52.130;5.598;2022-08-19T03:39:33;64.05;;;33.35;;
23716;SDS011;22094;52.130;5.598;2022-08-19T03:42:00;60.42;;;32.58;;
23716;SDS011;22094;52.130;5.598;2022-08-19T03:44:28;63.92;;;33.35;;
23716;SDS011;22094;52.130;5.598;2022-08-19T03:46:55;62.83;;;32.85;;
23716;SDS011;22094;52.130;5.598;2022-08-19T03:49:23;49.95;;;29.50;;
23716;SDS011;22094;52.130;5.598;2022-08-19T03:51:55;42.95;;;27.27;;
23716;SDS011;22094;52.130;5.598;2022-08-19T03:54:23;43.45;;;26.60;;
23716;SDS011;22094;52.130;5.598;2022-08-19T03:56:50;44.22;;;26.20;;
23716;SDS011;22094;52.130;5.598;2022-08-19T03:59:18;38.17;;;24.85;;
23716;SDS011;22094;52.130;5.598;2022-08-19T04:01:46;41.88;;;25.23;;
23716;SDS011;22094;52.130;5.598;2022-08-19T04:04:12;37.88;;;24.00;;
23716;SDS011;22094;52.130;5.598;2022-08-19T04:06:38;45.17;;;25.05;;
23716;SDS011;22094;52.130;5.598;2022-08-19T04:09:04;34.67;;;23.30;;
23716;SDS011;22094;52.130;5.598;2022-08-19T04:11:34;39.63;;;23.98;;
23716;SDS011;22094;52.130;5.598;2022-08-19T04:14:04;36.58;;;23.52;;
23716;SDS011;22094;52.130;5.598;2022-08-19T04:16:30;38.65;;;24.25;;
23716;SDS011;22094;52.130;5.598;2022-08-19T04:18:56;40.33;;;24.30;;
23716;SDS011;22094;52.130;5.598;2022-08-19T04:21:26;45.60;;;26.10;;
23716;SDS011;22094;52.130;5.598;2022-08-19T04:23:52;38.13;;;24.75;;
23716;SDS011;22094;52.130;5.598;2022-08-19T04:26:21;39.08;;;25.60;;
23716;SDS011;22094;52.130;5.598;2022-08-19T04:28:51;39.20;;;24.27;;
23716;SDS011;22094;52.130;5.598;2022-08-19T04:31:21;40.45;;;24.48;;
23716;SDS011;22094;52.130;5.598;2022-08-19T04:33:51;41.60;;;24.80;;
23716;SDS011;22094;52.130;5.598;2022-08-19T04:36:25;35.72;;;24.20;;
23716;SDS011;22094;52.130;5.598;2022-08-19T04:38:53;39.22;;;23.05;;
23716;SDS011;22094;52.130;5.598;2022-08-19T04:41:30;45.70;;;24.40;;
23716;SDS011;22094;52.130;5.598;2022-08-19T04:44:32;40.72;;;24.55;;
23716;SDS011;22094;52.130;5.598;2022-08-19T04:46:59;42.88;;;25.33;;
23716;SDS011;22094;52.130;5.598;2022-08-19T04:49:25;34.67;;;22.67;;
23716;SDS011;22094;52.130;5.598;2022-08-19T04:51:51;45.42;;;26.67;;
23716;SDS011;22094;52.130;5.598;2022-08-19T04:54:19;47.15;;;28.10;;
23716;SDS011;22094;52.130;5.598;2022-08-19T04:56:47;55.40;;;28.92;;
23716;SDS011;22094;52.130;5.598;2022-08-19T04:59:14;49.42;;;27.85;;
23716;SDS011;22094;52.130;5.598;2022-08-19T05:01:42;58.92;;;28.80;;
23716;SDS011;22094;52.130;5.598;2022-08-19T05:04:08;50.40;;;27.08;;
23716;SDS011;22094;52.130;5.598;2022-08-19T05:06:34;50.28;;;28.23;;
23716;SDS011;22094;52.130;5.598;2022-08-19T05:09:03;47.75;;;28.55;;
23716;SDS011;22094;52.130;5.598;2022-08-19T05:11:34;52.63;;;30.38;;
23716;SDS011;22094;52.130;5.598;2022-08-19T05:14:03;57.05;;;31.58;;
23716;SDS011;22094;52.130;5.598;2022-08-19T05:16:29;61.35;;;33.03;;
23716;SDS011;22094;52.130;5.598;2022-08-19T05:18:55;54.45;;;32.28;;
23716;SDS011;22094;52.130;5.598;2022-08-19T05:21:39;49.33;;;31.25;;
23716;SDS011;22094;52.130;5.598;2022-08-19T05:24:24;44.45;;;29.90;;
23716;SDS011;22094;52.130;5.598;2022-08-19T05:26:51;36.92;;;27.92;;
23716;SDS011;22094;52.130;5.598;2022-08-19T05:29:19;33.15;;;24.73;;
23716;SDS011;22094;52.130;5.598;2022-08-19T05:31:46;26.98;;;21.20;;
23716;SDS011;22094;52.130;5.598;2022-08-19T05:34:14;29.35;;;22.00;;
23716;SDS011;22094;52.130;5.598;2022-08-19T05:36:41;26.15;;;22.38;;
23716;SDS011;22094;52.130;5.598;2022-08-19T05:39:09;21.83;;;18.58;;
23716;SDS011;22094;52.130;5.598;2022-08-19T05:41:41;21.65;;;16.42;;
23716;SDS011;22094;52.130;5.598;2022-08-19T05:44:14;21.08;;;15.43;;
23716;SDS011;22094;52.130;5.598;2022-08-19T05:46:42;18.65;;;15.80;;
23716;SDS011;22094;52.130;5.598;2022-08-19T05:49:12;20.05;;;14.95;;
23716;SDS011;22094;52.130;5.598;2022-08-19T05:51:39;18.65;;;14.57;;
23716;SDS011;22094;52.130;5.598;2022-08-19T05:54:04;23.48;;;14.90;;
23716;SDS011;22094;52.130;5.598;2022-08-19T05:56:33;16.88;;;14.45;;
23716;SDS011;22094;52.130;5.598;2022-08-19T05:59:01;20.70;;;16.25;;
23716;SDS011;22094;52.130;5.598;2022-08-19T06:01:27;29.00;;;17.20;;
23716;SDS011;22094;52.130;5.598;2022-08-19T06:03:53;23.98;;;16.98;;
23716;SDS011;22094;52.130;5.598;2022-08-19T06:06:18;23.70;;;17.63;;
23716;SDS011;22094;52.130;5.598;2022-08-19T06:08:45;24.17;;;17.75;;
23716;SDS011;22094;52.130;5.598;2022-08-19T06:11:17;24.20;;;18.88;;
23716;SDS011;22094;52.130;5.598;2022-08-19T06:14:00;32.78;;;20.08;;
23716;SDS011;22094;52.130;5.598;2022-08-19T06:16:28;25.83;;;20.10;;
23716;SDS011;22094;52.130;5.598;2022-08-19T06:18:56;30.85;;;20.92;;
23716;SDS011;22094;52.130;5.598;2022-08-19T06:21:25;30.23;;;20.90;;
23716;SDS011;22094;52.130;5.598;2022-08-19T06:23:52;24.80;;;21.10;;
23716;SDS011;22094;52.130;5.598;2022-08-19T06:26:19;29.70;;;21.77;;
23716;SDS011;22094;52.130;5.598;2022-08-19T06:28:46;27.13;;;21.60;;
23716;SDS011;22094;52.130;5.598;2022-08-19T06:31:16;31.98;;;22.85;;
23716;SDS011;22094;52.130;5.598;2022-08-19T06:33:45;33.45;;;24.90;;
23716;SDS011;22094;52.130;5.598;2022-08-19T06:36:24;41.58;;;26.27;;
23716;SDS011;22094;52.130;5.598;2022-08-19T06:38:58;47.20;;;28.27;;
23716;SDS011;22094;52.130;5.598;2022-08-19T06:41:29;49.90;;;29.83;;
23716;SDS011;22094;52.130;5.598;2022-08-19T06:43:57;53.42;;;31.35;;
23716;SDS011;22094;52.130;5.598;2022-08-19T06:46:23;53.83;;;31.77;;
23716;SDS011;22094;52.130;5.598;2022-08-19T06:48:49;57.58;;;33.30;;
23716;SDS011;22094;52.130;5.598;2022-08-19T06:51:18;52.60;;;33.05;;
23716;SDS011;22094;52.130;5.598;2022-08-19T06:53:44;48.17;;;31.45;;
23716;SDS011;22094;52.130;5.598;2022-08-19T06:56:12;49.20;;;32.20;;
23716;SDS011;22094;52.130;5.598;2022-08-19T06:58:39;51.40;;;34.00;;
23716;SDS011;22094;52.130;5.598;2022-08-19T07:01:05;48.92;;;32.05;;
23716;SDS011;22094;52.130;5.598;2022-08-19T07:03:32;49.20;;;33.38;;
23716;SDS011;22094;52.130;5.598;2022-08-19T07:08:33;49.55;;;32.08;;
23716;SDS011;22094;52.130;5.598;2022-08-19T07:10:58;49.08;;;33.88;;
23716;SDS011;22094;52.130;5.598;2022-08-19T07:13:25;53.80;;;35.88;;
23716;SDS011;22094;52.130;5.598;2022-08-19T07:15:50;51.42;;;35.92;;
23716;SDS011;22094;52.130;5.598;2022-08-19T07:18:17;55.50;;;36.30;;
23716;SDS011;22094;52.130;5.598;2022-08-19T07:20:45;52.17;;;36.53;;
23716;SDS011;22094;52.130;5.598;2022-08-19T07:23:11;56.67;;;37.92;;
23716;SDS011;22094;52.130;5.598;2022-08-19T07:25:37;60.13;;;39.20;;
23716;SDS011;22094;52.130;5.598;2022-08-19T07:28:03;62.10;;;39.30;;
23716;SDS011;22094;52.130;5.598;2022-08-19T07:30:29;60.92;;;38.88;;
23716;SDS011;22094;52.130;5.598;2022-08-19T07:32:55;61.05;;;39.25;;
23716;SDS011;22094;52.130;5.598;2022-08-19T07:35:21;59.30;;;37.88;;
23716;SDS011;22094;52.130;5.598;2022-08-19T07:37:48;60.90;;;38.22;;
23716;SDS011;22094;52.130;5.598;2022-08-19T07:40:14;55.67;;;36.58;;
23716;SDS011;22094;52.130;5.598;2022-08-19T07:42:40;60.33;;;37.22;;
23716;SDS011;22094;52.130;5.598;2022-08-19T07:45:07;60.25;;;36.45;;
23716;SDS011;22094;52.130;5.598;2022-08-19T07:47:33;57.83;;;36.80;;
23716;SDS011;22094;52.130;5.598;2022-08-19T07:49:59;61.00;;;36.60;;
23716;SDS011;22094;52.130;5.598;2022-08-19T07:52:24;61.88;;;37.40;;
23716;SDS011;22094;52.130;5.598;2022-08-19T07:54:50;58.88;;;36.90;;
23716;SDS011;22094;52.130;5.598;2022-08-19T07:57:17;57.28;;;36.13;;
23716;SDS011;22094;52.130;5.598;2022-08-19T07:59:43;59.08;;;36.05;;
23716;SDS011;22094;52.130;5.598;2022-08-19T08:02:09;59.08;;;37.10;;
23716;SDS011;22094;52.130;5.598;2022-08-19T08:04:35;55.67;;;36.63;;
23716;SDS011;22094;52.130;5.598;2022-08-19T08:07:19;53.20;;;35.78;;
23716;SDS011;22094;52.130;5.598;2022-08-19T08:10:05;52.38;;;34.60;;
23716;SDS011;22094;52.130;5.598;2022-08-19T08:12:33;49.17;;;33.38;;
23716;SDS011;22094;52.130;5.598;2022-08-19T08:15:07;43.88;;;31.65;;
23716;SDS011;22094;52.130;5.598;2022-08-19T08:17:41;48.90;;;32.70;;
23716;SDS011;22094;52.130;5.598;2022-08-19T08:20:07;47.97;;;32.88;;
23716;SDS011;22094;52.130;5.598;2022-08-19T08:22:33;46.05;;;31.60;;
23716;SDS011;22094;52.130;5.598;2022-08-19T08:25:19;43.95;;;30.20;;
23716;SDS011;22094;52.130;5.598;2022-08-19T08:27:47;42.97;;;30.30;;
23716;SDS011;22094;52.130;5.598;2022-08-19T08:30:18;43.13;;;30.92;;
23716;SDS011;22094;52.130;5.598;2022-08-19T08:32:45;41.78;;;29.15;;
23716;SDS011;22094;52.130;5.598;2022-08-19T08:35:12;41.10;;;29.08;;
23716;SDS011;22094;52.130;5.598;2022-08-19T08:37:40;41.80;;;28.88;;
23716;SDS011;22094;52.130;5.598;2022-08-19T08:40:08;34.65;;;27.60;;
23716;SDS011;22094;52.130;5.598;2022-08-19T08:42:44;37.72;;;25.80;;
23716;SDS011;22094;52.130;5.598;2022-08-19T08:45:18;40.88;;;27.33;;
23716;SDS011;22094;52.130;5.598;2022-08-19T08:47:47;38.90;;;28.02;;
23716;SDS011;22094;52.130;5.598;2022-08-19T08:50:20;43.58;;;27.70;;
23716;SDS011;22094;52.130;5.598;2022-08-19T08:52:52;41.50;;;27.70;;
23716;SDS011;22094;52.130;5.598;2022-08-19T08:55:22;35.42;;;26.00;;
23716;SDS011;22094;52.130;5.598;2022-08-19T09:02:56;33.08;;;24.73;;
23716;SDS011;22094;52.130;5.598;2022-08-19T09:05:23;32.60;;;24.92;;
23716;SDS011;22094;52.130;5.598;2022-08-19T09:10:28;26.13;;;21.83;;
23716;SDS011;22094;52.130;5.598;2022-08-19T09:15:51;28.88;;;21.90;;
23716;SDS011;22094;52.130;5.598;2022-08-19T09:18:47;36.50;;;23.25;;
23716;SDS011;22094;52.130;5.598;2022-08-19T09:21:17;28.52;;;21.83;;
23716;SDS011;22094;52.130;5.598;2022-08-19T09:23:43;29.90;;;22.15;;
23716;SDS011;22094;52.130;5.598;2022-08-19T09:26:10;32.75;;;23.15;;
23716;SDS011;22094;52.130;5.598;2022-08-19T09:28:38;30.40;;;22.23;;
23716;SDS011;22094;52.130;5.598;2022-08-19T09:31:07;30.60;;;22.38;;
23716;SDS011;22094;52.130;5.598;2022-08-19T09:33:33;29.52;;;22.05;;
23716;SDS011;22094;52.130;5.598;2022-08-19T09:36:06;28.35;;;21.08;;
23716;SDS011;22094;52.130;5.598;2022-08-19T09:38:34;29.50;;;21.65;;
23716;SDS011;22094;52.130;5.598;2022-08-19T09:41:04;29.65;;;21.23;;
23716;SDS011;22094;52.130;5.598;2022-08-19T09:43:32;27.75;;;20.58;;
23716;SDS011;22094;52.130;5.598;2022-08-19T09:46:04;32.22;;;21.08;;
23716;SDS011;22094;52.130;5.598;2022-08-19T09:48:38;24.48;;;19.05;;
23716;SDS011;22094;52.130;5.598;2022-08-19T09:51:06;27.50;;;19.67;;
23716;SDS011;22094;52.130;5.598;2022-08-19T09:53:33;24.67;;;20.98;;
23716;SDS011;22094;52.130;5.598;2022-08-19T09:56:00;26.60;;;20.05;;
23716;SDS011;22094;52.130;5.598;2022-08-19T09:58:26;23.83;;;18.33;;
23716;SDS011;22094;52.130;5.598;2022-08-19T10:00:54;25.05;;;18.23;;
23716;SDS011;22094;52.130;5.598;2022-08-19T10:03:20;20.95;;;17.05;;
23716;SDS011;22094;52.130;5.598;2022-08-19T10:05:46;22.40;;;17.60;;
23716;SDS011;22094;52.130;5.598;2022-08-19T10:08:16;22.85;;;17.10;;
23716;SDS011;22094;52.130;5.598;2022-08-19T10:10:44;22.75;;;17.30;;
23716;SDS011;22094;52.130;5.598;2022-08-19T10:13:10;23.83;;;16.35;;
23716;SDS011;22094;52.130;5.598;2022-08-19T10:15:36;27.25;;;18.42;;
23716;SDS011;22094;52.130;5.598;2022-08-19T10:18:04;21.38;;;15.60;;
23716;SDS011;22094;52.130;5.598;2022-08-19T10:20:30;22.20;;;16.27;;
23716;SDS011;22094;52.130;5.598;2022-08-19T10:22:56;20.45;;;14.95;;
23716;SDS011;22094;52.130;5.598;2022-08-19T10:25:24;21.90;;;16.08;;
23716;SDS011;22094;52.130;5.598;2022-08-19T10:27:51;19.88;;;16.45;;
23716;SDS011;22094;52.130;5.598;2022-08-19T10:30:18;23.50;;;17.38;;
23716;SDS011;22094;52.130;5.598;2022-08-19T10:32:44;21.25;;;16.30;;
23716;SDS011;22094;52.130;5.598;2022-08-19T10:35:10;22.38;;;16.00;;
23716;SDS011;22094;52.130;5.598;2022-08-19T10:37:37;19.65;;;16.65;;
23716;SDS011;22094;52.130;5.598;2022-08-19T10:40:04;20.00;;;15.73;;
23716;SDS011;22094;52.130;5.598;2022-08-19T10:42:32;18.77;;;14.27;;
23716;SDS011;22094;52.130;5.598;2022-08-19T10:44:58;21.30;;;15.13;;
23716;SDS011;22094;52.130;5.598;2022-08-19T10:47:24;17.90;;;14.57;;
23716;SDS011;22094;52.130;5.598;2022-08-19T10:49:50;17.58;;;15.02;;
23716;SDS011;22094;52.130;5.598;2022-08-19T10:52:35;20.50;;;16.15;;
23716;SDS011;22094;52.130;5.598;2022-08-19T10:55:02;17.75;;;14.68;;
23716;SDS011;22094;52.130;5.598;2022-08-19T10:57:47;20.38;;;15.27;;
23716;SDS011;22094;52.130;5.598;2022-08-19T11:00:13;21.83;;;14.75;;
23716;SDS011;22094;52.130;5.598;2022-08-19T11:02:39;20.50;;;14.82;;
23716;SDS011;22094;52.130;5.598;2022-08-19T11:05:06;18.73;;;14.77;;
23716;SDS011;22094;52.130;5.598;2022-08-19T11:07:32;20.13;;;15.73;;
23716;SDS011;22094;52.130;5.598;2022-08-19T11:09:58;21.27;;;16.67;;
23716;SDS011;22094;52.130;5.598;2022-08-19T11:12:24;20.25;;;17.05;;
23716;SDS011;22094;52.130;5.598;2022-08-19T11:14:52;19.48;;;15.73;;
23716;SDS011;22094;52.130;5.598;2022-08-19T11:17:21;20.33;;;16.30;;
23716;SDS011;22094;52.130;5.598;2022-08-19T11:19:48;20.02;;;17.35;;
23716;SDS011;22094;52.130;5.598;2022-08-19T11:22:14;18.77;;;15.80;;
23716;SDS011;22094;52.130;5.598;2022-08-19T11:24:41;21.50;;;18.92;;
23716;SDS011;22094;52.130;5.598;2022-08-19T11:27:07;23.45;;;17.67;;
23716;SDS011;22094;52.130;5.598;2022-08-19T11:29:35;21.83;;;17.98;;
23716;SDS011;22094;52.130;5.598;2022-08-19T11:32:05;21.67;;;18.83;;
23716;SDS011;22094;52.130;5.598;2022-08-19T11:34:33;27.23;;;19.63;;
23716;SDS011;22094;52.130;5.598;2022-08-19T11:37:00;26.77;;;21.38;;
23716;SDS011;22094;52.130;5.598;2022-08-19T11:39:27;29.95;;;20.70;;
23716;SDS011;22094;52.130;5.598;2022-08-19T11:41:55;23.80;;;19.83;;
23716;SDS011;22094;52.130;5.598;2022-08-19T11:44:21;29.98;;;21.40;;
23716;SDS011;22094;52.130;5.598;2022-08-19T11:46:50;25.20;;;21.33;;
23716;SDS011;22094;52.130;5.598;2022-08-19T11:49:17;28.98;;;22.13;;
23716;SDS011;22094;52.130;5.598;2022-08-19T11:51:43;24.70;;;21.75;;
23716;SDS011;22094;52.130;5.598;2022-08-19T11:54:10;23.67;;;19.13;;
23716;SDS011;22094;52.130;5.598;2022-08-19T11:56:36;27.30;;;21.92;;
23716;SDS011;22094;52.130;5.598;2022-08-19T11:59:02;25.58;;;22.90;;
23716;SDS011;22094;52.130;5.598;2022-08-19T12:01:28;27.58;;;23.45;;
23716;SDS011;22094;52.130;5.598;2022-08-19T12:03:54;26.80;;;22.70;;
23716;SDS011;22094;52.130;5.598;2022-08-19T12:06:24;30.00;;;24.90;;
23716;SDS011;22094;52.130;5.598;2022-08-19T12:08:53;25.33;;;21.40;;
23716;SDS011;22094;52.130;5.598;2022-08-19T12:11:20;30.02;;;23.33;;
23716;SDS011;22094;52.130;5.598;2022-08-19T12:13:46;27.52;;;21.58;;
23716;SDS011;22094;52.130;5.598;2022-08-19T12:16:23;29.55;;;23.60;;
23716;SDS011;22094;52.130;5.598;2022-08-19T12:18:50;27.17;;;20.88;;
23716;SDS011;22094;52.130;5.598;2022-08-19T12:21:17;20.23;;;17.27;;
23716;SDS011;22094;52.130;5.598;2022-08-19T12:23:46;29.15;;;23.63;;
23716;SDS011;22094;52.130;5.598;2022-08-19T12:26:13;27.75;;;24.08;;
23716;SDS011;22094;52.130;5.598;2022-08-19T12:28:39;30.27;;;24.52;;
23716;SDS011;22094;52.130;5.598;2022-08-19T12:31:06;29.02;;;23.95;;
23716;SDS011;22094;52.130;5.598;2022-08-19T12:33:32;27.83;;;21.70;;
23716;SDS011;22094;52.130;5.598;2022-08-19T12:36:06;30.92;;;22.92;;
23716;SDS011;22094;52.130;5.598;2022-08-19T12:38:34;23.48;;;20.85;;
23716;SDS011;22094;52.130;5.598;2022-08-19T12:41:01;28.88;;;20.50;;
23716;SDS011;22094;52.130;5.598;2022-08-19T12:43:30;25.05;;;20.17;;
23716;SDS011;22094;52.130;5.598;2022-08-19T12:45:56;25.75;;;21.98;;
23716;SDS011;22094;52.130;5.598;2022-08-19T12:48:22;29.17;;;22.45;;
23716;SDS011;22094;52.130;5.598;2022-08-19T12:50:48;28.75;;;22.10;;
23716;SDS011;22094;52.130;5.598;2022-08-19T12:53:15;29.77;;;22.90;;
23716;SDS011;22094;52.130;5.598;2022-08-19T12:55:41;30.05;;;22.23;;
23716;SDS011;22094;52.130;5.598;2022-08-19T12:58:10;28.55;;;22.83;;
23716;SDS011;22094;52.130;5.598;2022-08-19T13:00:37;28.92;;;23.98;;
23716;SDS011;22094;52.130;5.598;2022-08-19T13:03:03;36.10;;;27.33;;
23716;SDS011;22094;52.130;5.598;2022-08-19T13:05:30;38.22;;;29.27;;
23716;SDS011;22094;52.130;5.598;2022-08-19T13:07:58;39.47;;;30.40;;
23716;SDS011;22094;52.130;5.598;2022-08-19T13:10:26;38.97;;;31.95;;
23716;SDS011;22094;52.130;5.598;2022-08-19T13:13:01;44.38;;;33.63;;
23716;SDS011;22094;52.130;5.598;2022-08-19T13:15:29;41.38;;;34.15;;
23716;SDS011;22094;52.130;5.598;2022-08-19T13:17:59;49.88;;;36.67;;
23716;SDS011;22094;52.130;5.598;2022-08-19T13:20:24;49.10;;;37.85;;
23716;SDS011;22094;52.130;5.598;2022-08-19T13:22:50;47.03;;;35.03;;
23716;SDS011;22094;52.130;5.598;2022-08-19T13:25:16;42.13;;;33.97;;
23716;SDS011;22094;52.130;5.598;2022-08-19T13:27:44;34.60;;;30.00;;
23716;SDS011;22094;52.130;5.598;2022-08-19T13:30:11;33.17;;;27.63;;
23716;SDS011;22094;52.130;5.598;2022-08-19T13:32:57;35.92;;;28.38;;
23716;SDS011;22094;52.130;5.598;2022-08-19T13:35:49;38.65;;;29.70;;
23716;SDS011;22094;52.130;5.598;2022-08-19T13:38:20;36.30;;;29.02;;
23716;SDS011;22094;52.130;5.598;2022-08-19T13:40:47;48.83;;;35.65;;
23716;SDS011;22094;52.130;5.598;2022-08-19T13:43:15;58.53;;;38.75;;
23716;SDS011;22094;52.130;5.598;2022-08-19T13:45:41;68.13;;;40.40;;
23716;SDS011;22094;52.130;5.598;2022-08-19T13:48:06;77.88;;;42.05;;
23716;SDS011;22094;52.130;5.598;2022-08-19T13:50:34;79.63;;;45.72;;
23716;SDS011;22094;52.130;5.598;2022-08-19T13:53:03;66.68;;;45.75;;
23716;SDS011;22094;52.130;5.598;2022-08-19T13:55:28;75.25;;;46.33;;
23716;SDS011;22094;52.130;5.598;2022-08-19T13:57:55;79.65;;;46.20;;
23716;SDS011;22094;52.130;5.598;2022-08-19T14:00:23;76.30;;;46.55;;
23716;SDS011;22094;52.130;5.598;2022-08-19T14:02:51;77.40;;;49.05;;
23716;SDS011;22094;52.130;5.598;2022-08-19T14:05:19;100.28;;;51.72;;
23716;SDS011;22094;52.130;5.598;2022-08-19T14:07:45;101.60;;;52.38;;
23716;SDS011;22094;52.130;5.598;2022-08-19T14:10:13;96.35;;;51.92;;
23716;SDS011;22094;52.130;5.598;2022-08-19T14:12:39;97.20;;;50.15;;
23716;SDS011;22094;52.130;5.598;2022-08-19T14:15:06;125.35;;;57.22;;
23716;SDS011;22094;52.130;5.598;2022-08-19T14:17:33;124.38;;;59.15;;
23716;SDS011;22094;52.130;5.598;2022-08-19T14:20:02;155.45;;;66.00;;
23716;SDS011;22094;52.130;5.598;2022-08-19T14:22:33;130.57;;;64.80;;
23716;SDS011;22094;52.130;5.598;2022-08-19T14:25:00;175.95;;;69.20;;
23716;SDS011;22094;52.130;5.598;2022-08-19T14:27:25;208.63;;;69.68;;
23716;SDS011;22094;52.130;5.598;2022-08-19T14:29:51;256.20;;;73.70;;
23716;SDS011;22094;52.130;5.598;2022-08-19T14:32:17;181.23;;;68.30;;
23716;SDS011;22094;52.130;5.598;2022-08-19T14:34:43;196.80;;;68.35;;
23716;SDS011;22094;52.130;5.598;2022-08-19T14:37:12;284.85;;;73.05;;
23716;SDS011;22094;52.130;5.598;2022-08-19T14:39:41;256.13;;;71.40;;